Time;durP1;ratioP1;P1;durP2;ratioP2;P2;SDS_P1;SDS_P2;PMS_P1;PMS_P2;Temp;Humidity;BMP_temperature;BMP_pressure;BME280_temperature;BME280_humidity;BME280_pressure;Samples;Min_cycle;Max_cycle;Signal;HPM_P1;HPM_P2
2023/01/13 00:01:54;;;;;;;63.63;35.47;;;;;;;1.50;100.00;96267.34;5090932;28;20020;-64
2023/01/13 00:04:19;;;;;;;45.13;28.35;;;;;;;1.51;100.00;96271.63;5090514;28;20016;-63
2023/01/13 00:06:45;;;;;;;33.67;22.40;;;;;;;1.47;100.00;96270.09;5090824;28;20153;-64
2023/01/13 00:09:10;;;;;;;30.27;17.95;;;;;;;1.40;100.00;96270.34;5090944;28;20141;-64
2023/01/13 00:11:35;;;;;;;24.23;14.20;;;;;;;1.35;100.00;96274.94;5091535;28;20030;-63
2023/01/13 00:14:01;;;;;;;24.25;14.65;;;;;;;1.37;100.00;96274.88;5090924;28;20035;-64
2023/01/13 00:16:26;;;;;;;28.83;18.42;;;;;;;1.39;100.00;96279.06;5091265;28;20035;-60
2023/01/13 00:18:51;;;;;;;34.88;19.98;;;;;;;1.44;100.00;96281.44;5090946;28;20036;-61
2023/01/13 00:21:22;;;;;;;30.88;18.63;;;;;;;1.39;100.00;96278.22;5090904;28;20034;-61
2023/01/13 00:23:48;;;;;;;58.35;35.58;;;;;;;1.35;100.00;96276.69;5106486;28;20447;-62
2023/01/13 00:26:18;;;;;;;70.25;40.10;;;;;;;1.33;100.00;96265.56;5081332;28;20521;-61
2023/01/13 00:28:43;;;;;;;63.88;38.13;;;;;;;1.31;100.00;96264.75;5075038;28;20400;-62
2023/01/13 00:31:12;;;;;;;44.20;28.75;;;;;;;1.24;100.00;96256.44;5091426;28;20016;-61
2023/01/13 00:33:38;;;;;;;44.90;27.77;;;;;;;1.21;100.00;96246.19;5091075;28;20024;-70
2023/01/13 00:36:05;;;;;;;44.30;27.42;;;;;;;1.17;100.00;96235.13;5091022;28;20162;-70
2023/01/13 00:38:32;;;;;;;40.05;24.05;;;;;;;1.14;100.00;96236.09;5090159;28;20066;-61
2023/01/13 00:41:04;;;;;;;39.80;23.08;;;;;;;1.10;100.00;96236.28;5090581;28;20077;-62
2023/01/13 00:43:31;;;;;;;29.92;18.65;;;;;;;1.30;100.00;96227.59;5089880;28;20107;-62
2023/01/13 00:45:57;;;;;;;31.23;20.05;;;;;;;1.18;100.00;96229.03;5090795;28;20036;-62
2023/01/13 00:48:24;;;;;;;30.83;19.70;;;;;;;1.16;100.00;96223.06;5090603;28;20452;-62
2023/01/13 00:51:02;;;;;;;27.60;18.27;;;;;;;1.34;100.00;96221.34;5090868;28;20024;-61
2023/01/13 00:53:29;;;;;;;26.85;18.83;;;;;;;1.31;100.00;96226.69;5089673;28;20028;-61
2023/01/13 00:56:09;;;;;;;20.70;15.00;;;;;;;1.28;100.00;96229.44;5090640;28;20524;-71
2023/01/13 00:58:35;;;;;;;22.40;13.02;;;;;;;1.27;100.00;96233.75;5089496;28;20516;-61
2023/01/13 01:01:07;;;;;;;20.27;12.15;;;;;;;1.32;100.00;96227.53;5090485;28;20028;-61
2023/01/13 01:03:33;;;;;;;18.27;12.18;;;;;;;1.32;100.00;96238.75;5091089;28;20021;-61
2023/01/13 01:06:07;;;;;;;13.90;10.23;;;;;;;1.29;100.00;96228.53;5073538;28;20024;-60
2023/01/13 01:08:34;;;;;;;11.57;9.15;;;;;;;1.29;100.00;96228.53;5090395;28;20024;-61
2023/01/13 01:11:06;;;;;;;43.67;26.60;;;;;;;1.38;100.00;96225.47;5090064;28;20019;-61
2023/01/13 01:13:31;;;;;;;36.88;23.88;;;;;;;1.32;100.00;96235.31;5090389;28;20020;-61
2023/01/13 01:15:57;;;;;;;26.90;18.83;;;;;;;1.29;100.00;96231.13;5088801;28;20023;-61
2023/01/13 01:18:23;;;;;;;15.23;11.52;;;;;;;1.38;100.00;96216.88;5095695;28;20034;-62
2023/01/13 01:20:48;;;;;;;21.85;14.18;;;;;;;1.28;100.00;96213.88;5087459;28;20477;-62
2023/01/13 01:23:14;;;;;;;16.73;13.05;;;;;;;1.23;100.00;96195.91;5089342;28;20070;-62
2023/01/13 01:25:39;;;;;;;27.08;18.20;;;;;;;1.17;100.00;96198.81;5086162;28;20106;-61
2023/01/13 01:28:04;;;;;;;39.20;26.58;;;;;;;1.16;100.00;96188.50;5088690;28;20481;-61
2023/01/13 01:30:30;;;;;;;19.17;15.05;;;;;;;1.16;100.00;96191.09;5088770;28;20669;-62
2023/01/13 01:32:56;;;;;;;21.77;14.63;;;;;;;1.22;100.00;96180.44;5088880;28;20038;-62
2023/01/13 01:35:22;;;;;;;24.98;18.80;;;;;;;1.22;100.00;96177.84;5087082;28;20068;-61
2023/01/13 01:37:48;;;;;;;21.33;15.88;;;;;;;1.18;100.00;96186.66;5080742;28;20637;-60
2023/01/13 01:40:13;;;;;;;18.70;12.85;;;;;;;1.23;100.00;96171.75;5051091;28;20054;-61
2023/01/13 01:45:25;;;;;;;10.40;8.10;;;;;;;1.18;100.00;96171.09;5089281;28;20577;-61
2023/01/13 01:47:57;;;;;;;12.25;7.72;;;;;;;1.27;100.00;96162.91;5090006;28;20038;-61
2023/01/13 01:50:23;;;;;;;16.95;14.43;;;;;;;1.22;100.00;96167.47;5089472;28;20465;-70
2023/01/13 01:52:54;;;;;;;12.73;10.88;;;;;;;1.22;100.00;96164.88;5089971;28;20028;-60
2023/01/13 01:55:23;;;;;;;15.50;11.00;;;;;;;1.26;100.00;96167.22;5089300;28;20024;-61
2023/01/13 01:58:19;;;;;;;11.45;8.63;;;;;;;1.27;100.00;96165.50;5089780;28;20081;-62
2023/01/13 02:00:45;;;;;;;8.32;6.95;;;;;;;1.26;100.00;96154.25;5084195;28;20044;-62
2023/01/13 02:03:10;;;;;;;11.07;7.72;;;;;;;1.28;100.00;96146.41;5089605;28;20456;-61
2023/01/13 02:05:37;;;;;;;10.35;6.95;;;;;;;1.31;100.00;96143.66;5089173;28;20111;-62
2023/01/13 02:08:04;;;;;;;9.77;8.05;;;;;;;1.32;100.00;96145.34;5089389;28;20405;-61
2023/01/13 02:10:31;;;;;;;12.50;7.63;;;;;;;1.34;100.00;96151.31;5089037;28;20044;-61
2023/01/13 02:13:03;;;;;;;12.60;9.45;;;;;;;1.36;100.00;96138.28;5089472;28;20486;-63
2023/01/13 02:15:44;;;;;;;12.98;10.93;;;;;;;1.46;100.00;96131.72;5088865;28;20112;-61
2023/01/13 02:18:37;;;;;;;9.30;7.95;;;;;;;1.52;100.00;96153.94;5087532;28;20565;-61
2023/01/13 02:21:38;;;;;;;11.02;8.57;;;;;;;1.46;100.00;96149.03;5076570;28;20027;-61
2023/01/13 02:27:22;;;;;;;10.00;7.88;;;;;;;1.53;100.00;96145.22;5089065;28;20421;-61
2023/01/13 02:33:02;;;;;;;13.80;9.85;;;;;;;1.56;100.00;96145.94;5093582;28;20085;-65
2023/01/13 02:35:55;;;;;;;14.50;10.93;;;;;;;1.51;100.00;96149.66;5092918;28;20178;-65
2023/01/13 02:38:27;;;;;;;19.70;16.05;;;;;;;1.55;100.00;96151.19;5093031;28;20076;-65
2023/01/13 02:44:05;;;;;;;12.30;11.05;;;;;;;1.53;100.00;96145.22;5093442;28;20056;-65
2023/01/13 02:46:34;;;;;;;13.70;11.18;;;;;;;1.53;100.00;96147.81;5093220;28;20031;-65
2023/01/13 02:49:06;;;;;;;12.52;10.75;;;;;;;1.47;100.00;96148.94;5093093;28;20081;-70
2023/01/13 02:51:33;;;;;;;10.15;8.32;;;;;;;1.43;100.00;96161.22;5092693;28;20084;-63
2023/01/13 02:54:02;;;;;;;11.52;8.20;;;;;;;1.49;100.00;96159.28;5092655;28;20032;-68
2023/01/13 02:56:31;;;;;;;14.45;8.45;;;;;;;1.71;100.00;96154.72;5092389;28;20050;-69
2023/01/13 02:58:58;;;;;;;11.88;7.60;;;;;;;1.62;100.00;96149.13;5092794;28;20028;-68
2023/01/13 03:01:24;;;;;;;10.50;7.93;;;;;;;1.57;100.00;96146.75;5092393;28;20073;-68
2023/01/13 03:03:49;;;;;;;14.15;8.20;;;;;;;1.47;100.00;96148.94;5092745;28;20019;-68
2023/01/13 03:06:34;;;;;;;12.70;8.45;;;;;;;1.44;100.00;96162.09;5092538;28;20474;-69
2023/01/13 03:09:15;;;;;;;9.48;7.70;;;;;;;1.67;100.00;96181.75;5092113;28;20028;-63
2023/01/13 03:12:14;;;;;;;11.75;9.20;;;;;;;1.70;100.00;96180.72;5092840;28;20031;-61
2023/01/13 03:14:54;;;;;;;16.13;11.93;;;;;;;1.63;100.00;96176.75;5092382;28;20051;-61
2023/01/13 03:18:06;;;;;;;14.27;9.10;;;;;;;1.66;100.00;96182.66;5091782;28;20434;-61
2023/01/13 03:20:37;;;;;;;14.20;8.82;;;;;;;1.70;100.00;96189.38;5091708;28;20489;-61
2023/01/13 03:23:16;;;;;;;13.82;8.10;;;;;;;1.64;100.00;96191.41;5092597;28;20397;-61
2023/01/13 03:26:11;;;;;;;11.07;7.40;;;;;;;1.61;100.00;96199.34;5092085;28;20028;-61
2023/01/13 03:28:45;;;;;;;54.63;46.22;;;;;;;1.62;100.00;96209.66;5091860;28;20505;-63
2023/01/13 03:31:19;;;;;;;25.27;22.95;;;;;;;1.62;100.00;96199.28;5092499;28;20073;-61
2023/01/13 03:33:52;;;;;;;29.45;21.75;;;;;;;1.71;100.00;96197.97;5091930;28;20024;-61
2023/01/13 03:36:24;;;;;;;23.52;17.10;;;;;;;1.77;100.00;96204.63;5092173;28;20027;-61
2023/01/13 03:38:56;;;;;;;15.88;11.27;;;;;;;1.72;100.00;96189.28;5079263;28;20040;-61
2023/01/13 03:41:32;;;;;;;10.70;8.00;;;;;;;1.69;100.00;96192.03;5090897;28;20035;-60
2023/01/13 03:44:22;;;;;;;8.60;6.35;;;;;;;1.65;100.00;96190.50;5092459;28;20085;-61
2023/01/13 03:47:08;;;;;;;7.70;5.65;;;;;;;1.70;100.00;96197.16;5091634;28;20024;-62
2023/01/13 03:49:39;;;;;;;7.28;6.20;;;;;;;1.67;100.00;96194.72;5091849;28;20048;-70
2023/01/13 03:52:09;;;;;;;7.78;6.25;;;;;;;1.82;100.00;96195.72;5091987;28;20031;-70
2023/01/13 03:54:43;;;;;;;8.70;5.93;;;;;;;1.95;100.00;96190.75;5091349;28;20050;-70
2023/01/13 03:57:12;;;;;;;10.30;6.15;;;;;;;1.78;100.00;96177.75;5091640;28;20081;-70
2023/01/13 03:59:43;;;;;;;7.85;6.07;;;;;;;1.73;100.00;96171.97;5091340;28;20686;-70
2023/01/13 04:02:20;;;;;;;7.53;5.13;;;;;;;1.75;100.00;96183.09;5091759;28;20077;-70
2023/01/13 04:04:56;;;;;;;7.90;5.47;;;;;;;1.71;100.00;96170.28;5091812;28;20103;-70
2023/01/13 04:07:39;;;;;;;9.32;6.28;;;;;;;1.64;100.00;96161.09;5090749;28;20547;-69
2023/01/13 04:10:07;;;;;;;7.68;6.05;;;;;;;1.69;100.00;96150.50;5091614;28;20462;-68
2023/01/13 04:13:07;;;;;;;10.38;8.07;;;;;;;1.74;100.00;96147.69;5091453;28;20031;-68
2023/01/13 04:15:39;;;;;;;8.13;7.32;;;;;;;1.72;100.00;96142.56;5065581;28;20494;-68
2023/01/13 04:18:14;;;;;;;8.57;6.03;;;;;;;1.70;100.00;96147.84;5091167;28;20028;-68
2023/01/13 04:20:40;;;;;;;26.13;12.90;;;;;;;1.70;100.00;96139.19;5090690;28;20386;-67
2023/01/13 04:23:06;;;;;;;25.73;12.85;;;;;;;1.71;100.00;96152.09;5091364;28;20028;-68
2023/01/13 04:25:32;;;;;;;15.75;8.90;;;;;;;1.75;100.00;96144.16;5091286;28;20027;-61
2023/01/13 04:27:57;;;;;;;11.75;6.97;;;;;;;1.81;100.00;96159.44;5091390;28;20043;-69
2023/01/13 04:30:23;;;;;;;8.45;5.22;;;;;;;1.90;100.00;96143.41;5090680;28;20012;-70
2023/01/13 04:32:48;;;;;;;6.68;5.00;;;;;;;1.91;100.00;96139.03;5091041;28;20097;-70
2023/01/13 04:35:13;;;;;;;8.60;4.65;;;;;;;2.38;100.00;96142.72;5090740;28;20069;-69
2023/01/13 04:37:39;;;;;;;15.05;8.52;;;;;;;2.22;100.00;96138.31;5090842;28;20043;-70
2023/01/13 04:40:05;;;;;;;14.55;8.30;;;;;;;2.11;100.00;96138.03;5090796;28;20047;-70
2023/01/13 04:42:30;;;;;;;42.30;19.70;;;;;;;2.09;100.00;96139.84;5090932;28;20032;-70
2023/01/13 04:44:56;;;;;;;32.17;15.50;;;;;;;2.12;100.00;96144.91;5090733;28;20111;-61
2023/01/13 04:47:21;;;;;;;42.55;20.95;;;;;;;2.11;100.00;96161.41;5091096;28;20133;-61
2023/01/13 04:49:46;;;;;;;26.35;15.48;;;;;;;2.11;100.00;96167.44;5090678;28;20050;-61
2023/01/13 04:52:12;;;;;;;19.45;12.57;;;;;;;2.12;100.00;96165.69;5090668;28;20031;-61
2023/01/13 04:54:37;;;;;;;11.18;7.75;;;;;;;2.13;100.00;96183.78;5090154;28;20074;-61
2023/01/13 04:57:03;;;;;;;14.80;8.73;;;;;;;2.14;100.00;96197.63;5090903;28;20465;-61
2023/01/13 04:59:28;;;;;;;16.38;8.13;;;;;;;2.28;100.00;96202.94;5088003;28;20657;-61
2023/01/13 05:01:53;;;;;;;9.32;5.43;;;;;;;2.25;100.00;96200.50;5090128;28;20052;-61
2023/01/13 05:04:19;;;;;;;5.47;4.20;;;;;;;2.50;100.00;96190.63;5089923;28;20100;-64
2023/01/13 05:06:44;;;;;;;7.65;4.72;;;;;;;2.61;100.00;96184.84;5084176;28;20390;-64
2023/01/13 05:09:11;;;;;;;6.20;4.85;;;;;;;2.77;100.00;96179.69;5090060;28;20042;-64
2023/01/13 05:17:06;;;;;;;6.55;4.57;;;;;;;2.49;100.00;96179.38;5089818;28;20023;-64
2023/01/13 05:19:38;;;;;;;6.32;3.92;;;;;;;2.70;100.00;96179.16;5090050;28;20024;-64
2023/01/13 05:27:32;;;;;;;4.95;4.38;;;;;;;2.68;100.00;96192.25;5090334;28;20166;-65
2023/01/13 05:29:58;;;;;;;4.72;4.28;;;;;;;2.72;100.00;96185.13;5089761;28;20024;-65
2023/01/13 05:32:24;;;;;;;7.30;5.25;;;;;;;2.78;100.00;96189.16;5090034;28;20031;-65
2023/01/13 05:34:49;;;;;;;7.80;5.00;;;;;;;2.72;100.00;96185.13;5089658;28;20490;-65
2023/01/13 05:37:15;;;;;;;6.63;4.88;;;;;;;2.70;100.00;96184.34;5089791;28;20054;-64
2023/01/13 05:45:10;;;;;;;5.45;4.95;;;;;;;2.61;100.00;96177.06;5089820;28;20027;-68
2023/01/13 05:47:35;;;;;;;7.22;5.43;;;;;;;2.58;100.00;96184.09;5089727;28;20077;-69
2023/01/13 05:50:01;;;;;;;8.73;5.55;;;;;;;2.58;100.00;96197.09;5089892;28;20028;-70
2023/01/13 05:52:26;;;;;;;8.15;5.93;;;;;;;2.57;100.00;96198.03;5089697;28;20027;-70
2023/01/13 05:54:52;;;;;;;13.07;8.48;;;;;;;2.56;100.00;96209.34;5089747;28;20024;-70
2023/01/13 05:57:17;;;;;;;22.95;12.65;;;;;;;2.60;100.00;96203.97;5089330;28;20024;-70
2023/01/13 05:59:42;;;;;;;20.98;17.08;;;;;;;2.60;100.00;96196.19;5089347;28;20020;-70
2023/01/13 06:02:08;;;;;;;12.48;10.25;;;;;;;2.56;100.00;96204.13;5089427;28;20518;-69
2023/01/13 06:04:33;;;;;;;10.90;9.07;;;;;;;2.55;100.00;96206.81;5089475;28;20081;-60
2023/01/13 06:06:59;;;;;;;15.70;13.35;;;;;;;2.53;100.00;96225.06;5089099;28;20554;-61
2023/01/13 06:09:24;;;;;;;11.90;8.98;;;;;;;2.53;100.00;96232.88;5089454;28;20494;-61
2023/01/13 06:11:49;;;;;;;10.15;8.02;;;;;;;2.61;100.00;96242.03;5089363;28;20028;-61
2023/01/13 06:14:15;;;;;;;7.57;6.45;;;;;;;2.60;100.00;96236.00;5089364;28;20107;-61
2023/01/13 06:16:40;;;;;;;6.57;5.97;;;;;;;2.61;100.00;96250.66;5089713;28;20384;-61
2023/01/13 06:19:07;;;;;;;9.27;8.38;;;;;;;2.68;100.00;96244.25;5089071;28;20073;-60
2023/01/13 06:21:34;;;;;;;8.98;7.35;;;;;;;2.65;100.00;96248.75;5081261;28;20056;-60
2023/01/13 06:23:59;;;;;;;10.48;8.23;;;;;;;2.61;100.00;96242.03;5085956;28;20032;-64
2023/01/13 06:26:28;;;;;;;8.98;8.05;;;;;;;2.55;100.00;96246.66;5089360;28;20050;-63
2023/01/13 06:28:54;;;;;;;8.35;6.90;;;;;;;2.52;100.00;96246.78;5088916;28;20111;-64
2023/01/13 06:31:20;;;;;;;7.45;6.45;;;;;;;2.53;100.00;96245.03;5089374;28;20107;-64
2023/01/13 06:33:51;;;;;;;6.93;6.32;;;;;;;2.57;100.00;96249.16;5089043;28;20028;-63
2023/01/13 06:36:24;;;;;;;6.95;6.28;;;;;;;2.54;100.00;96249.31;5089159;28;20107;-63
2023/01/13 06:38:54;;;;;;;14.23;12.95;;;;;;;2.52;100.00;96249.38;5088996;28;20036;-64
2023/01/13 06:44:04;;;;;;;13.35;10.32;;;;;;;2.50;100.00;96256.41;5089230;28;20093;-68
2023/01/13 06:46:30;;;;;;;13.27;9.23;;;;;;;2.52;100.00;96262.38;5088304;28;20439;-68
2023/01/13 06:48:55;;;;;;;12.95;10.35;;;;;;;2.53;100.00;96265.84;5087389;28;20024;-68
2023/01/13 06:51:20;;;;;;;10.27;9.25;;;;;;;2.53;100.00;96263.22;5087010;28;20401;-68
2023/01/13 06:53:45;;;;;;;13.02;11.82;;;;;;;2.53;100.00;96265.84;5103367;28;20551;-71
2023/01/13 06:56:11;;;;;;;9.63;8.73;;;;;;;2.52;100.00;96266.75;5088201;28;20032;-67
2023/01/13 06:58:36;;;;;;;11.27;9.13;;;;;;;2.52;100.00;96264.97;5088038;28;20020;-65
2023/01/13 07:01:02;;;;;;;11.27;10.18;;;;;;;2.53;100.00;96271.84;5088176;28;20082;-61
2023/01/13 07:03:27;;;;;;;10.98;8.60;;;;;;;2.53;100.00;96269.25;5088352;28;20024;-69
2023/01/13 07:05:54;;;;;;;10.80;9.35;;;;;;;2.52;100.00;96270.19;5088173;28;20024;-71
2023/01/13 07:08:19;;;;;;;9.75;8.60;;;;;;;2.52;100.00;96269.34;5099221;28;20043;-69
2023/01/13 07:10:45;;;;;;;10.05;9.15;;;;;;;2.54;100.00;96273.56;5093050;28;20078;-68
2023/01/13 07:16:05;;;;;;;13.77;10.23;;;;;;;2.53;100.00;96271.84;5079679;28;20048;-67
2023/01/13 07:18:33;;;;;;;10.73;9.70;;;;;;;2.53;100.00;96277.06;5090795;28;20024;-60
2023/01/13 07:21:00;;;;;;;11.57;10.52;;;;;;;2.54;100.00;96277.91;5091570;28;20024;-60
2023/01/13 07:23:27;;;;;;;9.70;8.80;;;;;;;2.55;100.00;96287.38;5084139;28;20017;-60
2023/01/13 07:25:57;;;;;;;9.07;8.18;;;;;;;2.56;100.00;96276.94;5081122;28;20028;-60
2023/01/13 07:28:27;;;;;;;10.70;8.43;;;;;;;2.58;100.00;96285.47;5091849;28;20114;-61
2023/01/13 07:30:53;;;;;;;9.93;8.93;;;;;;;2.58;100.00;96290.69;5091923;28;20028;-61
2023/01/13 07:33:19;;;;;;;11.13;9.88;;;;;;;2.57;100.00;96286.41;5084024;28;20020;-61
2023/01/13 07:35:45;;;;;;;13.63;11.07;;;;;;;2.58;100.00;96297.63;5090056;28;20038;-61
2023/01/13 07:38:10;;;;;;;14.80;12.10;;;;;;;2.58;100.00;96301.09;5091446;28;20048;-62
2023/01/13 07:40:36;;;;;;;17.00;13.02;;;;;;;2.60;100.00;96298.38;5091984;28;20026;-62
2023/01/13 07:45:46;;;;;;;27.20;20.48;;;;;;;2.69;100.00;96312.69;5091810;28;20035;-61
2023/01/13 07:48:11;;;;;;;21.98;17.20;;;;;;;2.67;100.00;96309.31;5090848;28;20504;-61
2023/01/13 07:50:37;;;;;;;16.30;13.00;;;;;;;2.67;100.00;96310.19;5091220;28;20032;-61
2023/01/13 07:53:03;;;;;;;15.98;13.73;;;;;;;2.67;100.00;96315.38;5090895;28;20383;-64
2023/01/13 07:55:28;;;;;;;14.63;13.02;;;;;;;2.67;100.00;96317.97;5091278;28;20039;-64
2023/01/13 07:57:53;;;;;;;14.88;12.68;;;;;;;2.70;100.00;96319.56;5091310;28;20039;-63
2023/01/13 08:00:19;;;;;;;25.10;16.38;;;;;;;2.71;100.00;96327.31;5092044;28;20024;-64
2023/01/13 08:02:45;;;;;;;22.35;15.70;;;;;;;2.72;100.00;96323.78;5088747;28;20419;-64
2023/01/13 08:05:10;;;;;;;55.47;33.15;;;;;;;2.75;100.00;96329.75;5083115;28;20512;-64
2023/01/13 08:07:36;;;;;;;55.00;38.22;;;;;;;2.77;100.00;96325.31;5090113;28;20027;-64
2023/01/13 08:10:03;;;;;;;83.50;56.78;;;;;;;2.78;100.00;96338.25;5091576;28;20117;-65
2023/01/13 08:15:12;;;;;;;44.35;32.88;;;;;;;2.81;100.00;96343.28;5091368;28;20081;-65
2023/01/13 08:17:37;;;;;;;29.88;21.95;;;;;;;2.81;100.00;96338.06;5091143;28;20016;-63
2023/01/13 08:20:03;;;;;;;25.08;20.45;;;;;;;2.82;100.00;96344.97;5090380;28;20410;-66
2023/01/13 08:22:31;;;;;;;29.02;22.13;;;;;;;2.85;100.00;96349.16;5080758;28;20563;-67
2023/01/13 08:24:57;;;;;;;35.55;26.48;;;;;;;2.86;100.00;96350.81;5085672;28;20639;-67
2023/01/13 08:27:22;;;;;;;36.10;27.30;;;;;;;2.89;100.00;96363.69;5077171;28;20039;-67
2023/01/13 08:29:48;;;;;;;23.50;18.48;;;;;;;2.90;100.00;96359.31;5093322;28;20078;-67
2023/01/13 08:32:13;;;;;;;28.73;20.25;;;;;;;2.90;100.00;96373.19;5090781;28;20028;-66
2023/01/13 08:34:38;;;;;;;31.45;23.60;;;;;;;2.90;100.00;96370.59;5090108;28;20054;-67
2023/01/13 08:37:04;;;;;;;34.22;22.33;;;;;;;2.89;100.00;96381.06;5089704;28;20036;-71
2023/01/13 08:39:29;;;;;;;28.08;21.23;;;;;;;2.90;100.00;96383.59;5090996;28;20020;-71
2023/01/13 08:41:54;;;;;;;24.33;19.77;;;;;;;2.92;100.00;96378.28;5092589;28;20077;-70
2023/01/13 08:44:22;;;;;;;19.80;16.55;;;;;;;2.93;100.00;96377.38;5092577;28;20098;-69
2023/01/13 08:46:48;;;;;;;18.75;15.43;;;;;;;2.95;100.00;96376.38;5081878;28;20409;-70
2023/01/13 08:49:15;;;;;;;14.20;12.70;;;;;;;2.97;100.00;96379.75;5089343;28;20039;-70
2023/01/13 08:51:40;;;;;;;21.17;15.38;;;;;;;3.04;100.00;96385.47;5099965;28;20020;-70
2023/01/13 08:54:05;;;;;;;17.98;15.73;;;;;;;3.04;100.00;96388.09;5089905;28;20081;-70
2023/01/13 08:56:31;;;;;;;16.58;14.70;;;;;;;3.08;100.00;96391.34;5090936;28;20020;-63
2023/01/13 08:58:57;;;;;;;19.42;13.93;;;;;;;3.08;100.00;96399.16;5090264;28;20027;-70
2023/01/13 09:01:24;;;;;;;20.83;15.55;;;;;;;3.08;100.00;96399.16;5090032;28;20453;-70
2023/01/13 09:03:49;;;;;;;22.13;17.50;;;;;;;3.10;100.00;96418.16;5088359;28;20508;-70
2023/01/13 09:06:14;;;;;;;36.13;22.55;;;;;;;3.09;100.00;96421.66;5088451;28;20028;-69
2023/01/13 09:08:40;;;;;;;25.20;18.67;;;;;;;3.08;100.00;96423.44;5088526;28;20032;-70
2023/01/13 09:13:10;;;;;;;17.38;15.13;;;;;;;3.07;100.00;96439.97;5089442;28;20402;-70
2023/01/13 09:13:50;;;;;;;21.88;15.38;;;;;;;3.10;100.00;96438.97;5088534;28;20028;-61
2023/01/13 09:16:16;;;;;;;23.58;16.45;;;;;;;3.12;100.00;96439.75;5089519;28;20028;-66
2023/01/13 09:18:41;;;;;;;20.83;18.48;;;;;;;3.14;100.00;96443.94;5089789;28;20034;-67
2023/01/13 09:21:10;;;;;;;32.45;27.63;;;;;;;3.24;100.00;96448.69;5090131;28;20020;-67
2023/01/13 09:23:35;;;;;;;37.80;33.78;;;;;;;3.27;100.00;96444.16;5089610;28;20031;-67
2023/01/13 09:26:00;;;;;;;35.17;31.55;;;;;;;3.31;100.00;96455.25;5089737;28;20024;-67
2023/01/13 09:28:26;;;;;;;26.63;23.75;;;;;;;3.39;100.00;96453.09;5089885;28;20028;-66
2023/01/13 09:30:51;;;;;;;30.13;26.48;;;;;;;3.47;100.00;96450.09;5089936;28;20016;-66
2023/01/13 09:36:00;;;;;;;24.23;21.65;;;;;;;3.75;100.00;96453.84;5090234;28;20039;-61
2023/01/13 09:38:26;;;;;;;26.25;23.42;;;;;;;3.88;100.00;96456.66;5088633;28;20048;-67
2023/01/13 09:40:52;;;;;;;50.72;42.83;;;;;;;3.99;100.00;96446.50;5089667;28;20089;-67
2023/01/13 09:49:15;;;;;;;16.42;14.50;;;;;;;4.27;100.00;96442.38;5089925;28;20034;-66
2023/01/13 09:51:48;;;;;;;11.73;10.73;;;;;;;4.38;100.00;96438.34;5089645;28;20016;-67
2023/01/13 09:54:15;;;;;;;9.73;8.73;;;;;;;4.38;100.00;96435.75;5089259;28;20071;-65
2023/01/13 09:56:41;;;;;;;8.55;7.72;;;;;;;4.48;100.00;96431.69;5089774;28;20512;-63
2023/01/13 09:59:10;;;;;;;8.50;7.70;;;;;;;4.59;100.00;96428.47;5089136;28;20020;-62
2023/01/13 10:01:51;;;;;;;8.32;7.53;;;;;;;4.56;100.00;96424.28;5089378;28;20024;-63
2023/01/13 10:04:17;;;;;;;6.85;6.03;;;;;;;4.65;100.00;96417.72;5089121;28;20474;-63
2023/01/13 10:06:48;;;;;;;6.22;5.53;;;;;;;4.71;100.00;96411.28;5089461;28;20032;-63
2023/01/13 10:09:21;;;;;;;6.28;5.65;;;;;;;4.82;100.00;96413.28;5089331;28;20106;-62
2023/01/13 10:14:39;;;;;;;6.38;5.40;;;;;;;4.90;100.00;96418.06;5089799;28;20559;-64
2023/01/13 10:17:24;;;;;;;6.03;5.63;;;;;;;4.86;100.00;96420.84;5088751;28;20036;-63
2023/01/13 10:20:17;;;;;;;7.60;6.90;;;;;;;4.99;100.00;96420.97;5089097;28;20027;-63
2023/01/13 10:22:45;;;;;;;7.50;5.88;;;;;;;5.11;100.00;96405.53;5089016;28;20039;-62
2023/01/13 10:25:42;;;;;;;7.22;6.65;;;;;;;5.20;100.00;96394.53;5089415;28;20095;-62
2023/01/13 10:28:11;;;;;;;6.82;4.50;;;;;;;5.49;100.00;96394.53;5089469;28;20031;-62
2023/01/13 10:30:43;;;;;;;4.60;3.75;;;;;;;5.85;100.00;96405.44;5088850;28;20447;-62
2023/01/13 10:33:10;;;;;;;7.55;6.70;;;;;;;6.01;100.00;96411.44;5089325;28;20028;-63
2023/01/13 10:36:01;;;;;;;6.97;6.28;;;;;;;5.88;100.00;96406.09;5089154;28;20023;-71
2023/01/13 10:38:34;;;;;;;5.35;4.85;;;;;;;5.82;100.00;96421.31;5088564;28;20093;-71
2023/01/13 10:41:15;;;;;;;5.85;5.05;;;;;;;5.94;100.00;96410.13;5088917;28;20083;-70
2023/01/13 10:43:42;;;;;;;7.75;7.00;;;;;;;5.99;100.00;96404.59;5076593;28;20111;-71
2023/01/13 10:46:15;;;;;;;6.50;6.00;;;;;;;5.91;100.00;96404.22;5088955;28;20051;-71
2023/01/13 10:48:50;;;;;;;9.77;8.88;;;;;;;5.82;100.00;96403.03;5089707;28;20024;-71
2023/01/13 10:51:20;;;;;;;7.82;6.45;;;;;;;5.94;100.00;96390.97;5092822;28;20091;-63
2023/01/13 10:54:02;;;;;;;6.28;5.78;;;;;;;5.84;100.00;96383.72;5092883;28;20020;-64
2023/01/13 10:56:33;;;;;;;6.05;5.47;;;;;;;5.74;100.00;96370.38;5092560;28;20024;-62
2023/01/13 10:59:28;;;;;;;6.32;5.80;;;;;;;5.65;100.00;96372.72;5092072;28;20036;-62
2023/01/13 11:01:56;;;;;;;6.77;6.27;;;;;;;5.60;100.00;96367.78;5077614;28;20080;-62
2023/01/13 11:04:38;;;;;;;8.82;7.95;;;;;;;5.81;100.00;96368.22;5093384;28;20628;-63
2023/01/13 11:07:17;;;;;;;6.70;5.97;;;;;;;5.87;100.00;96367.84;5097414;28;20030;-63
2023/01/13 11:09:42;;;;;;;6.65;5.65;;;;;;;6.00;100.00;96361.84;5093425;28;20024;-63
2023/01/13 11:12:29;;;;;;;11.07;8.68;;;;;;;6.05;100.00;96351.13;5092392;28;20746;-64
2023/01/13 11:14:56;;;;;;;8.18;7.07;;;;;;;6.14;100.00;96353.97;5092476;28;20614;-64
2023/01/13 11:17:27;;;;;;;6.97;6.25;;;;;;;6.35;100.00;96348.31;5092274;28;20024;-64
2023/01/13 11:20:02;;;;;;;7.82;6.65;;;;;;;6.80;100.00;96347.16;5095643;28;20050;-64
2023/01/13 11:22:32;;;;;;;9.63;8.73;;;;;;;7.43;100.00;96342.91;5094372;28;20081;-63
2023/01/13 11:25:01;;;;;;;7.72;6.93;;;;;;;7.52;100.00;96330.09;5092131;28;20051;-65
2023/01/13 11:27:38;;;;;;;6.95;6.30;;;;;;;7.50;100.00;96340.66;5070321;28;20034;-65
2023/01/13 11:30:08;;;;;;;8.00;6.57;;;;;;;7.39;100.00;96344.03;5091665;28;20031;-63
2023/01/13 11:33:11;;;;;;;9.13;8.23;;;;;;;7.42;100.00;96333.38;5062011;28;20031;-63
2023/01/13 11:36:05;;;;;;;8.70;8.00;;;;;;;7.20;100.00;96341.03;5088957;28;20074;-65
2023/01/13 11:38:47;;;;;;;9.10;8.25;;;;;;;7.15;100.00;96336.91;5089977;28;20194;-65
2023/01/13 11:41:27;;;;;;;8.82;8.00;;;;;;;7.29;100.00;96327.28;5089781;28;20067;-65
2023/01/13 11:44:24;;;;;;;7.70;6.80;;;;;;;7.20;100.00;96338.41;5090208;28;20123;-64
2023/01/13 11:46:52;;;;;;;6.53;5.90;;;;;;;7.03;100.00;96343.81;5089428;28;20048;-65
2023/01/13 11:49:37;;;;;;;8.40;7.60;;;;;;;6.91;100.00;96341.19;5086063;28;20034;-63
2023/01/13 11:52:11;;;;;;;9.95;9.07;;;;;;;6.66;100.00;96345.47;5086118;28;20031;-62
2023/01/13 11:55:12;;;;;;;9.57;8.23;;;;;;;6.39;100.00;96347.16;5087569;28;20024;-62
2023/01/13 11:57:37;;;;;;;22.40;20.05;;;;;;;6.15;100.00;96344.38;5100692;28;20030;-62
2023/01/13 12:00:13;;;;;;;13.43;11.98;;;;;;;5.93;100.00;96337.00;5095788;28;20027;-62
2023/01/13 12:02:41;;;;;;;9.45;8.65;;;;;;;5.72;100.00;96327.84;5097292;28;20027;-61
2023/01/13 12:05:41;;;;;;;7.82;7.22;;;;;;;5.66;100.00;96336.06;5100640;28;20019;-62
2023/01/13 12:08:39;;;;;;;9.93;8.93;;;;;;;5.52;100.00;96338.69;5016905;28;20511;-73
2023/01/13 12:11:17;;;;;;;5.38;4.97;;;;;;;5.34;100.00;96357.16;5094328;28;20077;-67
2023/01/13 12:13:51;;;;;;;5.22;4.82;;;;;;;5.25;100.00;96362.94;5087162;28;20482;-62
2023/01/13 12:16:16;;;;;;;4.20;3.92;;;;;;;5.22;100.00;96357.91;5091082;28;20019;-63
2023/01/13 12:18:58;;;;;;;4.45;3.97;;;;;;;5.22;100.00;96348.28;5090644;28;20104;-65
2023/01/13 12:21:27;;;;;;;3.08;2.88;;;;;;;5.33;100.00;96341.59;5099181;28;20457;-66
2023/01/13 12:24:12;;;;;;;3.65;3.13;;;;;;;5.43;100.00;96343.56;5094482;28;20089;-67
2023/01/13 12:26:42;;;;;;;4.40;3.60;;;;;;;5.71;100.00;96341.84;5094813;28;20039;-66
2023/01/13 12:29:20;;;;;;;3.80;3.50;;;;;;;5.83;100.00;96334.16;5091378;28;20381;-62
2023/01/13 12:31:48;;;;;;;3.40;3.10;;;;;;;5.91;100.00;96334.53;5091215;28;20028;-64